Batavia, Iowa
Current Conditions -  °F | °C
As of 6:55 PM on Tuesday 21 Oct 2014 (Local Time) from KFFL Reporting Station
Clear Clear  
Wind Chill: 52°   Ceiling: Unl
Heat Index: 52°   Visibility: NA
Dew Point: 39°   Wind: 7mph
Humidity: 62%   Direction: 80°E
Pressure: 30.17"   Gusts: NA
Location:  40.99°N, 92.17°W
Report Text: KFFL 212355Z AUTO 08006KT CLR 11/04 A3017 RMK AO2
Loading
Personal Weather Stations






























Interactive Weather Map
Tropical Storm Tracking
New forecast layout! Learn more

10-Day Weather Forecast

Advertisements
Track Severe Weather on mobile